createdAt,value
2017-02-27T00:00:55.547Z,0
2017-02-27T00:02:05.495Z,0
2017-02-27T00:03:15.767Z,0
2017-02-27T00:04:25.628Z,0
2017-02-27T00:05:35.518Z,0
2017-02-27T00:06:45.641Z,0
2017-02-27T00:07:56.006Z,0
2017-02-27T00:09:06.412Z,0
2017-02-27T00:10:16.273Z,0
2017-02-27T00:11:25.815Z,0
2017-02-27T00:12:35.534Z,0
2017-02-27T00:13:45.825Z,0
2017-02-27T00:14:56.152Z,0
2017-02-27T00:16:06.447Z,0
2017-02-27T00:17:16.814Z,0
2017-02-27T00:18:27.322Z,0
2017-02-27T00:19:37.194Z,0
2017-02-27T00:20:47.072Z,0
2017-02-27T00:21:57.225Z,0
2017-02-27T00:23:07.106Z,0
2017-02-27T00:24:17.693Z,0
2017-02-27T00:25:27.996Z,0
2017-02-27T00:26:38.284Z,0
2017-02-27T00:27:48.575Z,0
2017-02-27T00:28:58.854Z,0
2017-02-27T00:30:09.432Z,0
2017-02-27T00:31:19.716Z,0
2017-02-27T00:32:30.073Z,0
2017-02-27T00:33:39.954Z,0
2017-02-27T00:34:50.335Z,0
2017-02-27T00:36:00.983Z,0
2017-02-27T00:37:10.854Z,0
2017-02-27T00:38:20.753Z,0
2017-02-27T00:39:30.649Z,0
2017-02-27T00:40:40.984Z,0
2017-02-27T00:41:51.122Z,0
2017-02-27T00:43:00.989Z,0
2017-02-27T00:44:10.931Z,0
2017-02-27T00:45:21.252Z,0
2017-02-27T00:46:31.525Z,0
2017-02-27T00:47:42.090Z,0
2017-02-27T00:48:51.993Z,0
2017-02-27T00:50:02.258Z,0
2017-02-27T00:51:12.547Z,0
2017-02-27T00:52:22.453Z,0
2017-02-27T00:53:32.561Z,0
2017-02-27T00:54:42.829Z,0
2017-02-27T00:55:52.753Z,0
2017-02-27T00:57:03.009Z,0
2017-02-27T00:58:13.291Z,0
2017-02-27T00:59:23.440Z,0
2017-02-27T01:00:33.710Z,0
2017-02-27T01:01:43.178Z,0
2017-02-27T01:02:53.096Z,0
2017-02-27T01:04:02.580Z,0
2017-02-27T01:05:12.714Z,0
2017-02-27T01:06:23.013Z,0
2017-02-27T01:07:33.340Z,0
2017-02-27T01:08:43.626Z,0
2017-02-27T01:09:53.903Z,0
2017-02-27T01:11:04.433Z,0
2017-02-27T01:12:14.765Z,0
2017-02-27T01:13:25.259Z,0
2017-02-27T01:14:35.151Z,0
2017-02-27T01:15:45.517Z,0
2017-02-27T01:16:55.637Z,0
2017-02-27T01:18:05.561Z,0
2017-02-27T01:19:15.900Z,0
2017-02-27T01:20:25.784Z,0
2017-02-27T01:21:35.661Z,0
2017-02-27T01:22:45.799Z,0
2017-02-27T01:23:55.702Z,0
2017-02-27T01:25:05.591Z,0
2017-02-27T01:26:15.467Z,0
2017-02-27T01:27:25.369Z,0
2017-02-27T01:28:35.095Z,0
2017-02-27T01:29:44.959Z,0
2017-02-27T01:30:55.380Z,0
2017-02-27T01:32:05.675Z,0
2017-02-27T01:33:15.119Z,0
2017-02-27T01:34:25.233Z,0
2017-02-27T06:00:00.735Z,5
2017-02-27T06:01:10.619Z,5
2017-02-27T06:02:20.922Z,10
2017-02-27T06:03:31.175Z,10
2017-02-27T06:04:41.469Z,10
2017-02-27T06:05:51.617Z,10
2017-02-27T06:07:01.949Z,10
2017-02-27T06:08:12.219Z,15
2017-02-27T06:09:22.489Z,15
2017-02-27T06:10:32.815Z,15
2017-02-27T06:11:42.999Z,20
2017-02-27T06:12:53.297Z,20
2017-02-27T06:14:03.585Z,20
2017-02-27T06:15:13.987Z,25
2017-02-27T06:16:24.307Z,25
2017-02-27T06:17:35.055Z,25
2017-02-27T06:18:45.113Z,30
2017-02-27T06:19:55.430Z,35
2017-02-27T06:21:05.920Z,35
2017-02-27T06:22:16.297Z,40
2017-02-27T06:23:26.959Z,45
2017-02-27T06:24:37.254Z,50
2017-02-27T06:25:47.148Z,55
2017-02-27T06:26:57.002Z,60
2017-02-27T06:28:07.350Z,65
2017-02-27T06:29:18.125Z,70
2017-02-27T06:30:28.387Z,70
2017-02-27T06:31:38.698Z,70
2017-02-27T06:32:48.972Z,75
2017-02-27T06:33:59.296Z,80
2017-02-27T06:35:09.412Z,85
2017-02-27T06:36:19.291Z,90
2017-02-27T06:37:29.652Z,90
2017-02-27T06:38:40.020Z,95
2017-02-27T06:39:50.306Z,95
2017-02-27T06:41:00.416Z,100
2017-02-27T06:42:10.273Z,110
2017-02-27T06:43:20.588Z,120
2017-02-27T06:44:30.500Z,130
2017-02-27T06:45:40.809Z,135
2017-02-27T06:46:50.927Z,140
2017-02-27T06:48:00.822Z,145
2017-02-27T06:49:11.098Z,145
2017-02-27T06:50:21.414Z,155
2017-02-27T06:51:31.430Z,165
2017-02-27T06:52:41.564Z,175
2017-02-27T06:53:51.852Z,175
2017-02-27T06:55:02.182Z,180
2017-02-27T06:56:12.064Z,185
2017-02-27T06:57:22.336Z,195
2017-02-27T06:58:32.868Z,200
2017-02-27T06:59:43.204Z,200
2017-02-27T07:00:53.092Z,205
2017-02-27T07:02:03.043Z,215
2017-02-27T07:03:13.344Z,220
2017-02-27T07:04:23.964Z,225
2017-02-27T07:05:34.241Z,235
2017-02-27T07:06:44.493Z,240
2017-02-27T07:07:54.763Z,240
2017-02-27T07:09:04.281Z,245
2017-02-27T07:10:14.581Z,250
2017-02-27T07:11:24.901Z,245
2017-02-27T07:12:35.191Z,255
2017-02-27T07:13:44.695Z,245
2017-02-27T07:14:54.657Z,250
2017-02-27T07:16:05.239Z,250
2017-02-27T07:17:15.600Z,245
2017-02-27T07:18:25.540Z,230
2017-02-27T07:19:35.877Z,240
2017-02-27T07:20:46.143Z,235
2017-02-27T07:21:56.685Z,235
2017-02-27T07:23:06.573Z,235
2017-02-27T07:24:16.876Z,240
2017-02-27T07:25:27.208Z,245
2017-02-27T07:26:37.163Z,265
2017-02-27T07:27:47.365Z,275
2017-02-27T07:28:56.844Z,320
2017-02-27T07:30:07.121Z,355
2017-02-27T07:31:17.381Z,380
2017-02-27T07:32:26.864Z,440
2017-02-27T07:33:37.434Z,575
2017-02-27T07:34:47.294Z,670
2017-02-27T07:35:58.352Z,515
2017-02-27T07:37:09.313Z,520
2017-02-27T07:38:20.464Z,655
2017-02-27T07:39:31.863Z,485
2017-02-27T07:40:42.001Z,805
2017-02-27T07:41:52.153Z,940
2017-02-27T07:43:03.102Z,975
2017-02-27T07:44:13.614Z,665
2017-02-27T07:45:23.738Z,470
2017-02-27T07:46:34.027Z,480
2017-02-27T07:47:43.919Z,700
2017-02-27T07:48:53.804Z,620
2017-02-27T07:50:04.219Z,480
2017-02-27T07:51:13.932Z,480
2017-02-27T07:52:23.828Z,530
2017-02-27T07:53:34.120Z,490
2017-02-27T07:54:44.411Z,475
2017-02-27T07:55:54.691Z,465
2017-02-27T07:57:04.403Z,515
2017-02-27T07:58:14.307Z,780
2017-02-27T07:59:25.321Z,635
2017-02-27T08:00:35.272Z,590
2017-02-27T08:01:45.553Z,500
2017-02-27T08:02:55.711Z,515
2017-02-27T08:04:05.988Z,620
2017-02-27T08:05:16.344Z,475
2017-02-27T08:06:26.305Z,475
2017-02-27T08:07:36.209Z,475
2017-02-27T08:08:46.364Z,565
2017-02-27T08:09:56.972Z,980
2017-02-27T08:11:07.566Z,865
2017-02-27T08:12:18.215Z,1220
2017-02-27T08:13:29.324Z,1015
2017-02-27T08:14:39.848Z,610
2017-02-27T08:15:50.292Z,595
2017-02-27T08:17:00.184Z,665
2017-02-27T08:18:09.692Z,1030
2017-02-27T08:19:20.023Z,895
2017-02-27T08:20:30.953Z,910
2017-02-27T08:21:40.716Z,1790
2017-02-27T08:22:51.278Z,1855
2017-02-27T08:24:01.899Z,1770
2017-02-27T08:25:12.475Z,1780
2017-02-27T08:26:23.691Z,1980
2017-02-27T08:27:34.819Z,1850
2017-02-27T08:28:45.790Z,1015
2017-02-27T08:29:56.489Z,1070
2017-02-27T08:31:07.503Z,930
2017-02-27T08:32:18.550Z,735
2017-02-27T08:33:29.515Z,795
2017-02-27T08:34:40.063Z,1165
2017-02-27T08:35:50.324Z,1360
2017-02-27T08:37:01.272Z,1355
2017-02-27T08:38:11.817Z,575
2017-02-27T08:39:22.423Z,840
2017-02-27T08:40:32.411Z,1080
2017-02-27T08:41:43.482Z,1655
2017-02-27T08:42:54.119Z,1050
2017-02-27T08:44:04.684Z,475
2017-02-27T08:45:14.570Z,350
2017-02-27T08:46:24.464Z,305
2017-02-27T08:47:34.733Z,285
2017-02-27T08:48:44.795Z,270
2017-02-27T08:49:54.959Z,270
2017-02-27T08:51:05.242Z,300
2017-02-27T08:52:15.522Z,305
2017-02-27T08:53:25.457Z,310
2017-02-27T08:54:35.737Z,320
2017-02-27T08:55:45.857Z,320
2017-02-27T08:56:56.141Z,320
2017-02-27T08:58:06.554Z,325
2017-02-27T08:59:16.600Z,315
2017-02-27T09:00:26.917Z,300
2017-02-27T09:01:37.039Z,305
2017-02-27T09:02:46.906Z,300
2017-02-27T09:03:57.193Z,285
2017-02-27T09:05:07.495Z,290
2017-02-27T09:06:17.378Z,310
2017-02-27T09:07:27.557Z,330
2017-02-27T09:08:37.441Z,365
2017-02-27T09:09:47.753Z,395
2017-02-27T09:10:58.034Z,445
2017-02-27T09:12:07.526Z,455
2017-02-27T09:13:18.103Z,465
2017-02-27T09:14:27.972Z,415
2017-02-27T09:15:37.432Z,385
2017-02-27T09:16:47.744Z,345
2017-02-27T09:17:57.881Z,350
2017-02-27T09:19:08.417Z,385
2017-02-27T09:20:18.284Z,365
2017-02-27T09:21:28.215Z,380
2017-02-27T09:22:38.093Z,420
2017-02-27T09:23:47.995Z,470
2017-02-27T09:24:58.509Z,520
2017-02-27T09:26:08.397Z,800
2017-02-27T09:27:18.378Z,1045
2017-02-27T09:28:29.371Z,1090
2017-02-27T09:29:39.660Z,1000
2017-02-27T09:30:50.882Z,1740
2017-02-27T09:32:00.810Z,890
2017-02-27T09:33:10.316Z,775
2017-02-27T09:34:19.793Z,805
2017-02-27T09:35:29.675Z,825
2017-02-27T09:36:40.214Z,800
2017-02-27T09:37:50.199Z,740
2017-02-27T09:39:00.050Z,790
2017-02-27T09:40:10.405Z,780
2017-02-27T09:41:20.297Z,760
2017-02-27T09:42:30.093Z,760
2017-02-27T09:43:40.424Z,755
2017-02-27T09:44:50.707Z,720
2017-02-27T09:46:00.979Z,695
2017-02-27T09:47:11.313Z,700
2017-02-27T09:48:21.455Z,665
2017-02-27T09:49:31.389Z,705
2017-02-27T09:50:41.312Z,710
2017-02-27T09:51:51.193Z,730
2017-02-27T09:53:00.697Z,810
2017-02-27T09:54:11.336Z,695
2017-02-27T09:55:21.274Z,665
2017-02-27T09:56:30.779Z,630
2017-02-27T09:57:40.648Z,540
2017-02-27T09:58:50.980Z,540
2017-02-27T10:00:01.539Z,550
2017-02-27T10:01:11.417Z,640
2017-02-27T10:02:21.700Z,715
2017-02-27T10:03:31.607Z,745
2017-02-27T10:04:42.004Z,805
2017-02-27T10:05:52.191Z,690
2017-02-27T10:07:02.095Z,645
2017-02-27T10:08:12.375Z,615
2017-02-27T10:09:22.665Z,500
2017-02-27T10:10:32.616Z,500
2017-02-27T10:11:42.748Z,445
2017-02-27T10:12:53.066Z,435
2017-02-27T10:14:02.602Z,475
2017-02-27T10:15:12.889Z,440
2017-02-27T10:16:23.155Z,465
2017-02-27T10:17:33.331Z,480
2017-02-27T10:18:43.618Z,505
2017-02-27T10:19:53.939Z,520
2017-02-27T10:21:04.257Z,550
2017-02-27T10:22:14.571Z,565
2017-02-27T10:23:24.731Z,505
2017-02-27T10:24:35.027Z,525
2017-02-27T10:25:44.956Z,570
2017-02-27T10:26:55.233Z,585
2017-02-27T10:28:05.515Z,600
2017-02-27T10:29:16.093Z,670
2017-02-27T10:30:26.392Z,725
2017-02-27T10:31:36.864Z,705
2017-02-27T10:32:47.140Z,685
2017-02-27T10:33:57.452Z,730
2017-02-27T10:35:07.997Z,700
2017-02-27T10:36:18.341Z,675
2017-02-27T10:37:28.222Z,675
2017-02-27T10:38:38.617Z,815
2017-02-27T10:39:48.997Z,870
2017-02-27T10:40:59.675Z,2870
2017-02-27T10:42:09.985Z,1590
2017-02-27T10:43:20.248Z,1060
2017-02-27T10:44:30.261Z,945
2017-02-27T10:45:40.568Z,975
2017-02-27T10:46:51.177Z,975
2017-02-27T10:48:01.474Z,1095
2017-02-27T10:49:11.455Z,1095
2017-02-27T10:50:21.744Z,1000
2017-02-27T10:51:31.627Z,1140
2017-02-27T10:52:42.287Z,1095
2017-02-27T10:53:52.225Z,1260
2017-02-27T10:55:02.665Z,1110
2017-02-27T10:56:12.153Z,1215
2017-02-27T10:57:22.070Z,1650
2017-02-27T10:58:32.371Z,1200
2017-02-27T10:59:42.395Z,1250
2017-02-27T11:00:52.708Z,1315
2017-02-27T11:02:03.003Z,1135
2017-02-27T11:03:13.093Z,1075
2017-02-27T11:04:22.592Z,1150
2017-02-27T11:05:32.542Z,1370
2017-02-27T11:06:42.814Z,1475
2017-02-27T11:07:53.152Z,1120
2017-02-27T11:09:03.577Z,1015
2017-02-27T11:10:14.404Z,1050
2017-02-27T11:11:24.397Z,1040
2017-02-27T11:12:34.685Z,980
2017-02-27T11:13:45.022Z,975
2017-02-27T11:14:55.329Z,910
2017-02-27T11:16:05.033Z,880
2017-02-27T11:17:15.284Z,990
2017-02-27T11:18:24.760Z,975
2017-02-27T11:19:35.180Z,980
2017-02-27T11:20:45.464Z,875
2017-02-27T11:21:56.147Z,850
2017-02-27T11:23:06.479Z,1045
2017-02-27T11:24:16.865Z,1095
2017-02-27T11:25:26.341Z,1220
2017-02-27T11:26:36.733Z,2795
2017-02-27T11:27:46.904Z,2170
2017-02-27T11:28:56.820Z,2285
2017-02-27T11:30:06.696Z,1150
2017-02-27T11:31:17.016Z,1105
2017-02-27T11:32:27.305Z,1075
2017-02-27T11:33:37.869Z,1130
2017-02-27T11:34:47.769Z,1205
2017-02-27T11:35:58.057Z,1085
2017-02-27T11:37:08.411Z,1160
2017-02-27T11:38:17.898Z,1305
2017-02-27T11:39:28.065Z,2365
2017-02-27T11:40:38.377Z,3235
2017-02-27T11:41:48.709Z,1865
2017-02-27T11:42:59.038Z,1210
2017-02-27T11:44:09.032Z,945
2017-02-27T11:45:19.557Z,870
2017-02-27T11:46:29.468Z,905
2017-02-27T11:47:39.339Z,990
2017-02-27T11:48:49.225Z,1165
2017-02-27T11:49:59.127Z,1255
2017-02-27T11:51:09.689Z,1055
2017-02-27T11:52:19.603Z,1170
2017-02-27T11:53:29.119Z,1195
2017-02-27T11:54:39.538Z,1080
2017-02-27T11:55:49.897Z,1210
2017-02-27T11:56:59.227Z,2895
2017-02-27T11:58:09.103Z,2740
2017-02-27T11:59:19.407Z,960
2017-02-27T12:00:28.888Z,1615
2017-02-27T12:01:38.812Z,3285
2017-02-27T12:02:49.012Z,1095
2017-02-27T12:03:59.446Z,1070
2017-02-27T12:05:09.363Z,3380
2017-02-27T12:06:19.689Z,2770
2017-02-27T12:07:29.951Z,1295
2017-02-27T12:08:40.572Z,1100
2017-02-27T12:09:50.871Z,1150
2017-02-27T12:11:00.422Z,1210
2017-02-27T12:12:10.703Z,1660
2017-02-27T12:13:21.018Z,3490
2017-02-27T12:14:31.637Z,3105
2017-02-27T12:15:42.140Z,1405
2017-02-27T12:16:52.457Z,3140
2017-02-27T12:18:02.763Z,3020
2017-02-27T12:19:12.681Z,3165
2017-02-27T12:20:22.864Z,3765
2017-02-27T12:21:32.790Z,1675
2017-02-27T12:22:42.699Z,3470
2017-02-27T12:23:52.586Z,1620
2017-02-27T12:25:02.531Z,1095
2017-02-27T12:26:12.773Z,1110
2017-02-27T12:27:23.108Z,1720
2017-02-27T12:28:33.453Z,1140
2017-02-27T12:29:43.378Z,1350
2017-02-27T12:30:53.257Z,2780
2017-02-27T12:32:03.387Z,940
2017-02-27T12:33:13.835Z,895
2017-02-27T12:34:24.151Z,1140
2017-02-27T12:35:34.458Z,940
2017-02-27T12:36:44.805Z,740
2017-02-27T12:37:55.054Z,775
2017-02-27T12:39:04.940Z,745
2017-02-27T12:40:14.833Z,905
2017-02-27T12:41:25.138Z,900
2017-02-27T12:42:35.017Z,3450
2017-02-27T12:43:44.797Z,1475
2017-02-27T12:44:54.696Z,1895
2017-02-27T12:46:04.980Z,2055
2017-02-27T12:47:14.900Z,1330
2017-02-27T12:48:25.268Z,2620
2017-02-27T12:49:35.508Z,2820
2017-02-27T12:50:45.968Z,755
2017-02-27T12:51:56.251Z,1720
2017-02-27T12:53:06.751Z,2975
2017-02-27T12:54:16.639Z,3690
2017-02-27T12:55:27.229Z,4075
2017-02-27T12:56:37.194Z,3645
2017-02-27T12:57:47.466Z,3785
2017-02-27T12:58:57.843Z,3825
2017-02-27T13:00:08.172Z,3330
2017-02-27T13:01:18.750Z,2870
2017-02-27T13:02:29.085Z,2680
2017-02-27T13:03:39.372Z,2600
2017-02-27T13:04:49.652Z,2710
2017-02-27T13:06:00.011Z,2725
2017-02-27T13:07:10.193Z,2595
2017-02-27T13:08:20.550Z,2350
2017-02-27T13:09:30.852Z,2300
2017-02-27T13:10:41.143Z,2860
2017-02-27T13:11:50.659Z,3125
2017-02-27T13:13:01.225Z,2885
2017-02-27T13:14:11.151Z,2690
2017-02-27T13:15:21.491Z,2810
2017-02-27T13:16:31.785Z,3065
2017-02-27T13:17:42.115Z,2950
2017-02-27T13:19:24.474Z,1200
2017-02-27T13:20:34.912Z,2480
2017-02-27T13:21:44.958Z,2625
2017-02-27T13:22:55.288Z,2765
2017-02-27T13:24:05.635Z,2785
2017-02-27T13:25:15.562Z,2805
2017-02-27T13:26:25.887Z,2945
2017-02-27T13:27:36.279Z,2655
2017-02-27T13:28:46.212Z,2340
2017-02-27T13:29:56.364Z,2235
2017-02-27T13:31:06.249Z,2415
2017-02-27T13:32:16.218Z,2545
2017-02-27T13:33:26.496Z,2630
2017-02-27T13:34:36.787Z,2550
2017-02-27T13:35:47.368Z,2510
2017-02-27T13:36:57.712Z,2590
2017-02-27T13:38:08.006Z,2470
2017-02-27T13:39:17.906Z,2450
2017-02-27T13:40:28.176Z,2685
2017-02-27T13:41:38.752Z,2460
2017-02-27T13:42:49.073Z,1985
2017-02-27T13:43:59.393Z,1735
2017-02-27T13:45:08.873Z,1750
2017-02-27T13:46:18.900Z,2275
2017-02-27T13:47:29.459Z,2850
2017-02-27T13:48:39.390Z,3160
2017-02-27T13:49:49.771Z,3165
2017-02-27T13:50:59.670Z,3195
2017-02-27T13:52:10.072Z,3145
2017-02-27T13:53:20.721Z,2670
2017-02-27T13:54:31.069Z,2140
2017-02-27T13:55:41.223Z,2060
2017-02-27T13:57:23.435Z,2450
2017-02-27T13:58:33.191Z,2565
2017-02-27T13:59:43.556Z,2240
2017-02-27T14:00:53.514Z,1985
2017-02-27T14:02:03.926Z,2185
2017-02-27T14:03:13.834Z,2505
2017-02-27T14:04:24.406Z,2480
2017-02-27T14:05:34.768Z,2480
2017-02-27T14:06:45.059Z,2375
2017-02-27T14:07:54.965Z,2250
2017-02-27T14:09:05.339Z,2000
2017-02-27T14:10:15.212Z,2160
2017-02-27T14:11:25.141Z,2490
2017-02-27T14:12:35.526Z,2235
2017-02-27T14:13:45.435Z,2020
2017-02-27T14:14:55.801Z,2015
2017-02-27T14:16:06.395Z,1990
2017-02-27T14:17:16.792Z,1305
2017-02-27T14:18:26.899Z,2285
2017-02-27T14:19:36.413Z,1975
2017-02-27T14:20:46.751Z,2355
2017-02-27T14:21:56.931Z,2300
2017-02-27T14:23:07.232Z,2230
2017-02-27T14:24:17.132Z,2140
2017-02-27T14:25:27.674Z,2010
2017-02-27T14:26:38.035Z,2015
2017-02-27T14:27:48.638Z,2065
2017-02-27T14:28:58.138Z,2065
2017-02-27T14:30:08.448Z,1770
2017-02-27T14:31:18.369Z,1665
2017-02-27T14:32:28.311Z,1635
2017-02-27T14:33:38.456Z,1800
2017-02-27T14:34:48.354Z,1705
2017-02-27T14:35:58.705Z,1395
2017-02-27T14:37:09.064Z,1330
2017-02-27T14:38:19.356Z,1440
2017-02-27T14:39:29.943Z,1690
2017-02-27T14:40:39.904Z,1780
2017-02-27T14:41:49.793Z,1575
2017-02-27T14:42:59.792Z,1575
2017-02-27T14:44:10.178Z,1590
2017-02-27T14:45:20.335Z,1515
2017-02-27T14:46:30.689Z,1465
2017-02-27T14:47:40.610Z,1475
2017-02-27T14:48:50.535Z,1470
2017-02-27T14:50:00.883Z,1400
2017-02-27T14:51:11.091Z,1305
2017-02-27T14:52:21.401Z,1255
2017-02-27T14:53:31.763Z,1335
2017-02-27T14:54:41.244Z,1365
2017-02-27T14:55:51.179Z,1275
2017-02-27T14:57:01.150Z,1255
2017-02-27T14:58:11.507Z,1350
2017-02-27T14:59:20.967Z,1405
2017-02-27T15:00:31.293Z,1390
2017-02-27T15:01:41.184Z,1190
2017-02-27T15:02:51.886Z,1035
2017-02-27T15:04:02.188Z,1070
2017-02-27T15:05:12.127Z,1115
2017-02-27T15:06:22.455Z,1150
2017-02-27T15:07:33.040Z,1135
2017-02-27T15:08:43.629Z,940
2017-02-27T15:09:53.555Z,860
2017-02-27T15:11:03.459Z,510
2017-02-27T15:12:13.756Z,560
2017-02-27T15:13:24.159Z,665
2017-02-27T15:14:34.744Z,685
2017-02-27T15:15:45.095Z,915
2017-02-27T15:16:54.985Z,960
2017-02-27T15:18:04.495Z,1045
2017-02-27T15:19:14.991Z,1000
2017-02-27T15:20:25.174Z,965
2017-02-27T15:21:34.696Z,1015
2017-02-27T15:22:44.586Z,550
2017-02-27T15:23:54.556Z,550
2017-02-27T15:25:04.981Z,410
2017-02-27T15:26:15.578Z,320
2017-02-27T15:27:25.907Z,285
2017-02-27T15:28:35.840Z,235
2017-02-27T15:29:46.149Z,215
2017-02-27T15:30:56.431Z,205
2017-02-27T15:32:06.577Z,195
2017-02-27T15:33:16.892Z,190
2017-02-27T15:34:27.216Z,190
2017-02-27T15:35:37.548Z,185
2017-02-27T15:36:47.886Z,180
2017-02-27T15:37:58.468Z,175
2017-02-27T15:39:08.819Z,175
2017-02-27T15:40:18.725Z,170
2017-02-27T15:41:29.052Z,165
2017-02-27T15:42:38.609Z,160
2017-02-27T15:43:49.134Z,160
2017-02-27T15:44:58.607Z,160
2017-02-27T15:46:08.924Z,160
2017-02-27T15:47:19.375Z,155
2017-02-27T15:48:29.692Z,155
2017-02-27T15:49:40.283Z,155
2017-02-27T15:50:50.555Z,155
2017-02-27T15:52:01.097Z,155
2017-02-27T15:53:10.566Z,155
2017-02-27T15:54:20.894Z,150
2017-02-27T15:55:31.460Z,150
2017-02-27T15:56:41.786Z,150
2017-02-27T15:57:51.357Z,150
2017-02-27T15:59:01.269Z,150
2017-02-27T16:00:11.549Z,145
2017-02-27T16:01:22.177Z,140
2017-02-27T16:02:32.091Z,135
2017-02-27T16:03:41.963Z,125
2017-02-27T16:04:52.300Z,120
2017-02-27T16:06:02.212Z,110
2017-02-27T16:07:12.789Z,105
2017-02-27T16:08:22.287Z,100
2017-02-27T16:09:32.698Z,95
2017-02-27T16:10:43.085Z,90
2017-02-27T16:11:53.448Z,90
2017-02-27T16:13:04.046Z,85
2017-02-27T16:14:14.341Z,90
2017-02-27T16:15:24.248Z,85
2017-02-27T16:17:05.905Z,80
2017-02-27T16:18:16.114Z,75
2017-02-27T16:19:26.171Z,75
2017-02-27T16:20:36.559Z,70
2017-02-27T16:21:46.061Z,65
2017-02-27T16:22:56.347Z,60
2017-02-27T16:24:06.913Z,55
2017-02-27T16:25:17.192Z,50
2017-02-27T16:26:26.669Z,45
2017-02-27T16:27:37.031Z,45
2017-02-27T16:28:46.535Z,45
2017-02-27T16:29:56.817Z,40
2017-02-27T16:31:07.096Z,40
2017-02-27T16:32:17.048Z,35
2017-02-27T16:33:27.026Z,35
2017-02-27T16:34:36.513Z,35
2017-02-27T16:35:47.061Z,30
2017-02-27T16:36:57.414Z,30
2017-02-27T16:38:07.736Z,25
2017-02-27T16:39:17.360Z,25
2017-02-27T16:40:27.642Z,20
2017-02-27T16:41:37.819Z,20
2017-02-27T16:42:48.133Z,15
2017-02-27T16:43:58.068Z,15
2017-02-27T16:45:08.462Z,10
2017-02-27T16:46:18.760Z,10
2017-02-27T16:47:29.325Z,10
2017-02-27T16:48:39.227Z,10
2017-02-27T16:49:48.767Z,5
2017-02-27T16:50:58.649Z,5
2017-02-27T16:52:08.586Z,5
2017-02-27T16:53:18.745Z,5
2017-02-27T16:54:28.705Z,5
2017-02-27T16:55:39.026Z,5
2017-02-27T16:56:49.347Z,0
2017-02-27T16:57:59.705Z,0
2017-02-27T16:59:10.239Z,0
2017-02-27T17:00:20.578Z,0
2017-02-27T17:01:30.887Z,0
2017-02-27T17:02:41.203Z,0
2017-02-27T17:03:51.127Z,0
2017-02-27T17:05:01.816Z,0
2017-02-27T17:06:11.677Z,0
2017-02-27T17:07:22.176Z,0
2017-02-27T17:08:32.480Z,0
2017-02-27T17:09:42.397Z,0
2017-02-27T17:10:52.985Z,0
2017-02-27T17:12:02.689Z,0
2017-02-27T17:13:12.606Z,0
2017-02-27T17:14:22.614Z,0
2017-02-27T17:15:32.899Z,0
2017-02-27T17:16:43.496Z,0
2017-02-27T17:17:54.034Z,0
2017-02-27T17:19:03.926Z,0
2017-02-27T17:20:13.001Z,0
2017-02-27T17:21:23.377Z,0
2017-02-27T17:22:33.537Z,0
2017-02-27T17:23:44.107Z,0
2017-02-27T17:24:53.587Z,0
2017-02-27T17:26:03.861Z,0
2017-02-27T17:27:13.395Z,0
2017-02-27T17:28:23.566Z,0
2017-02-27T17:29:33.928Z,0
2017-02-27T17:30:43.801Z,0
2017-02-27T17:31:54.222Z,0
2017-02-27T17:33:04.252Z,0
2017-02-27T17:34:14.402Z,0
2017-02-27T17:35:24.297Z,0
2017-02-27T17:36:34.640Z,0
2017-02-27T17:37:44.914Z,0
2017-02-27T17:38:54.967Z,0
2017-02-27T17:40:05.615Z,0
2017-02-27T17:41:15.954Z,0
2017-02-27T17:42:26.301Z,0
2017-02-27T17:43:36.585Z,0
2017-02-27T17:44:46.482Z,0
2017-02-27T17:45:57.163Z,0
2017-02-27T17:47:07.466Z,0
2017-02-27T17:48:17.389Z,0
2017-02-27T17:49:27.333Z,0
2017-02-27T17:50:36.799Z,0
2017-02-27T17:51:47.364Z,0
2017-02-27T17:52:57.738Z,0
2017-02-27T17:54:08.066Z,0
2017-02-27T17:55:18.376Z,0
2017-02-27T17:56:28.672Z,0
2017-02-27T17:57:39.267Z,0
2017-02-27T17:58:49.737Z,0
2017-02-27T17:59:59.628Z,0
2017-02-27T18:01:09.959Z,0
2017-02-27T18:02:20.406Z,0
2017-02-27T18:03:31.003Z,0
2017-02-27T18:04:41.351Z,0
2017-02-27T18:05:51.286Z,0
2017-02-27T18:07:00.784Z,0
2017-02-27T18:08:11.078Z,0
2017-02-27T18:09:21.238Z,0
2017-02-27T18:10:31.660Z,0
2017-02-27T18:11:41.675Z,0
2017-02-27T18:12:52.055Z,0
2017-02-27T18:14:02.477Z,0
2017-02-27T18:15:12.773Z,0
2017-02-27T18:16:23.134Z,0
2017-02-27T18:17:32.638Z,0
2017-02-27T18:18:42.927Z,0
2017-02-27T18:19:53.235Z,0
2017-02-27T18:21:03.421Z,0
2017-02-27T18:22:13.745Z,0
2017-02-27T18:23:24.109Z,0
2017-02-27T18:24:34.534Z,0
2017-02-27T18:25:44.858Z,0
2017-02-27T18:26:55.477Z,0
2017-02-27T18:28:05.418Z,0
2017-02-27T18:29:15.330Z,0
2017-02-27T18:30:24.836Z,0
2017-02-27T18:31:35.170Z,0
2017-02-27T18:32:45.791Z,0
2017-02-27T18:33:56.166Z,0
2017-02-27T18:35:06.472Z,0
2017-02-27T18:36:15.965Z,0
2017-02-27T18:37:26.338Z,0
2017-02-27T18:38:37.139Z,0
2017-02-27T18:39:47.054Z,0
2017-02-27T18:40:57.443Z,0
2017-02-27T18:42:07.851Z,0
2017-02-27T18:43:17.463Z,0
2017-02-27T18:44:28.164Z,0
2017-02-27T18:45:38.140Z,0
2017-02-27T18:46:47.644Z,0
2017-02-27T18:47:57.947Z,0
2017-02-27T18:49:08.289Z,0
2017-02-27T18:50:18.838Z,0
2017-02-27T18:51:29.188Z,0
2017-02-27T18:52:39.497Z,0
2017-02-27T18:53:49.471Z,0
2017-02-27T18:54:59.389Z,0
2017-02-27T18:56:10.064Z,0
2017-02-27T18:57:20.407Z,0
2017-02-27T18:58:30.857Z,0
2017-02-27T18:59:41.247Z,0
2017-02-27T19:00:51.551Z,0
2017-02-27T19:02:01.750Z,0
2017-02-27T19:03:12.306Z,0
2017-02-27T19:04:21.794Z,0
2017-02-27T19:05:32.133Z,0
2017-02-27T19:06:42.509Z,0
2017-02-27T19:07:52.833Z,0
2017-02-27T19:09:03.177Z,0
2017-02-27T19:10:13.068Z,0
2017-02-27T19:11:23.033Z,0
2017-02-27T19:12:33.380Z,0
2017-02-27T19:13:44.050Z,0
2017-02-27T19:14:54.019Z,0
2017-02-27T19:16:04.368Z,0
2017-02-27T19:17:14.401Z,0
2017-02-27T19:18:24.717Z,0
2017-02-27T19:19:34.968Z,0
2017-02-27T19:20:45.334Z,0
2017-02-27T19:21:55.627Z,0
2017-02-27T19:23:06.133Z,0
2017-02-27T19:24:16.046Z,0
2017-02-27T19:25:26.854Z,0
2017-02-27T19:26:36.826Z,0
2017-02-27T19:27:47.157Z,0
2017-02-27T19:28:57.117Z,0
2017-02-27T19:30:07.146Z,0
2017-02-27T19:31:17.789Z,0
2017-02-27T19:32:28.166Z,0
2017-02-27T19:33:38.127Z,0
2017-02-27T19:34:48.428Z,0
2017-02-27T19:35:58.390Z,0
2017-02-27T19:37:09.072Z,0
2017-02-27T19:38:18.603Z,0
2017-02-27T19:39:28.966Z,0
2017-02-27T19:40:39.338Z,0
2017-02-27T19:41:48.847Z,0
2017-02-27T19:42:59.006Z,0
2017-02-27T19:44:09.366Z,0
2017-02-27T19:45:20.045Z,0
2017-02-27T19:46:30.411Z,0
2017-02-27T19:47:40.803Z,0
2017-02-27T19:48:51.001Z,0
2017-02-27T19:50:01.349Z,0
2017-02-27T19:51:11.718Z,0
2017-02-27T19:52:21.673Z,0
2017-02-27T19:53:32.047Z,0
2017-02-27T19:54:42.657Z,0
2017-02-27T19:55:52.998Z,0
2017-02-27T19:57:03.021Z,0
2017-02-27T19:58:13.377Z,0
2017-02-27T19:59:23.666Z,0
2017-02-27T20:00:34.310Z,0
2017-02-27T20:01:43.836Z,0
2017-02-27T20:02:54.181Z,0
2017-02-27T20:04:04.477Z,0
2017-02-27T20:05:14.416Z,0
2017-02-27T20:06:24.578Z,0
2017-02-27T20:07:34.930Z,0
2017-02-27T20:08:45.250Z,0
2017-02-27T20:09:55.191Z,0
2017-02-27T20:11:05.533Z,0
2017-02-27T20:12:16.154Z,0
2017-02-27T20:13:26.215Z,0
2017-02-27T20:14:35.746Z,0
2017-02-27T20:15:46.076Z,0
2017-02-27T20:16:56.742Z,0
2017-02-27T20:18:07.377Z,0
2017-02-27T20:19:17.679Z,0
2017-02-27T20:20:28.076Z,0
2017-02-27T20:21:37.990Z,0
2017-02-27T20:22:48.386Z,0
2017-02-27T20:23:58.644Z,0
2017-02-27T20:25:08.677Z,0
2017-02-27T20:26:18.231Z,0
2017-02-27T20:27:28.594Z,0
2017-02-27T20:28:38.966Z,0
2017-02-27T20:29:48.773Z,0
2017-02-27T20:30:59.170Z,0
2017-02-27T20:32:09.080Z,0
2017-02-27T20:33:19.478Z,0
2017-02-27T20:34:29.838Z,0
2017-02-27T20:35:40.080Z,0
2017-02-27T20:36:50.442Z,0
2017-02-27T20:38:01.059Z,0
2017-02-27T20:39:11.440Z,0
2017-02-27T20:40:20.965Z,0
2017-02-27T20:41:31.576Z,0
2017-02-27T20:42:41.956Z,0
2017-02-27T20:43:51.892Z,0
2017-02-27T20:45:01.466Z,0
2017-02-27T20:46:11.388Z,0
2017-02-27T20:47:22.027Z,0
2017-02-27T20:48:32.356Z,0
2017-02-27T20:49:42.820Z,0